Time;durP1;ratioP1;P1;durP2;ratioP2;P2;SDS_P1;SDS_P2;PMS_P1;PMS_P2;Temp;Humidity;BMP_temperature;BMP_pressure;BME280_temperature;BME280_humidity;BME280_pressure;Samples;Min_cycle;Max_cycle;Signal;HPM_P1;HPM_P2
2021/11/30 00:02:12;;;;;;;12.63;6.10;;;;;;;4.82;88.26;100999.38;4953009;29;20046;-49
2021/11/30 00:04:40;;;;;;;12.23;6.28;;;;;;;4.90;88.98;100993.69;4952936;29;20043;-47
2021/11/30 00:07:07;;;;;;;13.38;5.65;;;;;;;4.88;87.92;100990.38;4952815;28;20450;-49
2021/11/30 00:12:07;;;;;;;11.02;5.57;;;;;;;4.82;87.98;101007.50;4952926;29;20078;-49
2021/11/30 00:14:36;;;;;;;15.20;6.57;;;;;;;4.80;88.18;100999.59;4952478;29;20054;-51
2021/11/30 00:17:04;;;;;;;13.45;5.72;;;;;;;4.80;87.90;100998.78;4952897;28;20043;-49
2021/11/30 00:19:32;;;;;;;16.33;6.03;;;;;;;4.83;88.32;100998.31;4955524;28;20386;-49
2021/11/30 00:22:01;;;;;;;12.60;5.70;;;;;;;4.85;88.50;100990.84;4956293;29;20047;-49
2021/11/30 00:24:30;;;;;;;17.33;6.82;;;;;;;4.86;89.73;100984.41;4956591;29;20055;-50
2021/11/30 00:26:59;;;;;;;16.38;6.50;;;;;;;4.86;89.33;100981.69;4956291;29;20047;-48
2021/11/30 00:29:30;;;;;;;20.27;8.18;;;;;;;4.82;88.16;100977.78;4957083;28;20070;-50
2021/11/30 00:31:57;;;;;;;17.67;7.05;;;;;;;4.80;88.66;100971.78;4956329;28;20078;-48
2021/11/30 00:34:25;;;;;;;22.90;8.93;;;;;;;4.80;88.09;100964.50;4956222;29;20127;-49
2021/11/30 00:36:53;;;;;;;29.58;10.05;;;;;;;4.82;88.48;100967.00;4956037;29;20054;-50
2021/11/30 00:39:21;;;;;;;23.08;9.02;;;;;;;4.78;87.88;100957.69;4957091;28;20601;-47
2021/11/30 00:41:52;;;;;;;25.55;9.75;;;;;;;4.75;88.06;100958.16;4955347;28;20422;-47
2021/11/30 00:44:26;;;;;;;19.98;7.95;;;;;;;4.75;88.33;100955.44;4956039;29;20063;-49
2021/11/30 00:46:56;;;;;;;23.33;8.77;;;;;;;4.75;88.03;100950.88;4956186;28;20047;-47
2021/11/30 00:49:26;;;;;;;22.75;8.48;;;;;;;4.85;91.26;100929.56;4956182;28;20039;-53
2021/11/30 00:51:59;;;;;;;19.98;7.85;;;;;;;4.86;90.65;100938.50;4949426;29;20102;-49
2021/11/30 00:54:28;;;;;;;23.42;8.32;;;;;;;4.81;89.38;100933.78;4956157;29;20047;-48
2021/11/30 00:56:57;;;;;;;20.33;8.93;;;;;;;4.75;88.20;100931.16;4955344;29;20050;-49
2021/11/30 00:59:27;;;;;;;16.33;6.65;;;;;;;4.78;89.54;100936.09;4956065;29;20521;-48
2021/11/30 01:01:56;;;;;;;16.15;5.32;;;;;;;4.91;93.29;100919.75;4957072;28;20366;-51
2021/11/30 01:04:25;;;;;;;13.75;5.68;;;;;;;4.86;88.38;100919.59;4955624;29;20044;-48
2021/11/30 01:06:52;;;;;;;12.32;5.40;;;;;;;4.77;88.09;100912.88;4955923;28;20129;-50
2021/11/30 01:09:20;;;;;;;14.15;6.03;;;;;;;4.76;88.56;100909.31;4954994;29;20062;-49
2021/11/30 01:11:48;;;;;;;13.52;5.53;;;;;;;5.00;94.28;100898.63;4954797;28;20031;-48
2021/11/30 01:14:16;;;;;;;12.65;5.55;;;;;;;4.94;90.21;100897.69;4953986;29;20050;-48
2021/11/30 01:16:44;;;;;;;13.05;5.35;;;;;;;4.80;87.46;100896.22;4955739;29;20055;-48
2021/11/30 01:19:12;;;;;;;9.82;4.03;;;;;;;4.77;88.29;100886.69;4955406;29;20039;-48
2021/11/30 01:21:40;;;;;;;13.40;5.93;;;;;;;4.79;88.20;100890.00;4956594;28;20043;-48
2021/11/30 01:24:09;;;;;;;14.82;5.32;;;;;;;4.73;87.25;100895.47;4955166;28;20043;-48
2021/11/30 01:26:37;;;;;;;10.90;5.05;;;;;;;4.69;87.41;100909.44;4955217;28;20051;-49
2021/11/30 01:29:06;;;;;;;10.30;4.97;;;;;;;4.67;86.76;100906.13;4955360;28;20502;-46
2021/11/30 01:31:34;;;;;;;11.13;4.72;;;;;;;4.70;87.54;100889.47;4946256;28;20051;-49
2021/11/30 01:34:01;;;;;;;11.48;4.68;;;;;;;4.69;86.98;100906.72;4955666;28;20043;-50
2021/11/30 01:36:29;;;;;;;11.75;5.00;;;;;;;4.68;87.30;100904.25;4955347;28;20062;-56
2021/11/30 01:39:00;;;;;;;8.85;3.65;;;;;;;4.65;87.68;100921.72;4955239;28;20142;-56
2021/11/30 01:41:29;;;;;;;10.35;4.82;;;;;;;4.61;87.27;100904.31;4957241;28;20074;-52
2021/11/30 01:43:59;;;;;;;14.00;4.40;;;;;;;4.57;88.04;100902.28;4956776;28;20055;-66
2021/11/30 01:46:29;;;;;;;10.25;4.40;;;;;;;4.59;88.31;100890.22;4956098;28;20046;-52
2021/11/30 01:49:14;;;;;;;9.65;3.97;;;;;;;4.61;89.59;100887.31;4956584;28;20058;-53
2021/11/30 01:51:42;;;;;;;9.18;3.50;;;;;;;4.69;91.51;100873.53;4955858;28;20050;-49
2021/11/30 01:54:10;;;;;;;7.65;3.75;;;;;;;4.64;89.63;100858.00;4954825;28;20043;-51
2021/11/30 01:56:37;;;;;;;8.60;3.70;;;;;;;4.67;92.26;100849.44;4954891;29;20054;-47
2021/11/30 01:59:06;;;;;;;8.52;4.30;;;;;;;4.64;90.23;100849.91;4954671;29;20134;-50
2021/11/30 02:01:33;;;;;;;10.23;4.25;;;;;;;4.57;90.35;100843.78;4949358;28;20054;-48
2021/11/30 02:04:01;;;;;;;7.53;3.75;;;;;;;4.63;92.32;100839.34;4954853;29;20067;-49
2021/11/30 02:06:29;;;;;;;9.05;4.15;;;;;;;4.59;91.40;100825.47;4954886;29;20062;-49
2021/11/30 02:08:57;;;;;;;9.38;3.97;;;;;;;4.64;92.17;100814.84;4953997;28;20035;-48
2021/11/30 02:11:25;;;;;;;7.00;3.55;;;;;;;4.72;94.39;100813.69;4954485;28;20533;-49
2021/11/30 02:13:53;;;;;;;12.15;4.13;;;;;;;4.72;93.56;100802.88;4955309;28;20043;-50
2021/11/30 02:16:21;;;;;;;8.35;3.97;;;;;;;4.69;93.09;100809.56;4956299;28;20078;-48
2021/11/30 02:18:52;;;;;;;10.52;3.58;;;;;;;4.68;93.21;100790.91;4957206;28;20069;-48
2021/11/30 02:21:22;;;;;;;10.07;4.20;;;;;;;4.66;93.25;100774.91;4954544;28;20047;-51
2021/11/30 02:26:23;;;;;;;7.03;3.80;;;;;;;4.66;94.93;100777.63;4954602;29;20053;-48
2021/11/30 02:28:51;;;;;;;11.65;4.60;;;;;;;4.64;94.07;100784.31;4954308;28;20051;-49
2021/11/30 02:31:21;;;;;;;8.77;4.18;;;;;;;4.60;94.32;100767.75;4954304;28;20047;-48
2021/11/30 02:33:49;;;;;;;6.68;3.50;;;;;;;4.71;97.18;100763.44;4954828;28;20059;-47
2021/11/30 02:36:29;;;;;;;6.45;3.47;;;;;;;4.63;95.67;100759.19;4953920;28;20379;-52
2021/11/30 02:39:01;;;;;;;7.97;4.00;;;;;;;4.62;95.08;100762.16;4953435;28;20077;-50
2021/11/30 02:41:28;;;;;;;10.07;4.05;;;;;;;4.55;94.29;100758.72;4954127;28;20082;-45
2021/11/30 02:43:56;;;;;;;10.18;3.95;;;;;;;4.68;99.34;100753.94;4954896;28;20039;-48
2021/11/30 02:46:39;;;;;;;9.38;4.18;;;;;;;4.64;96.24;100739.28;4953984;28;20485;-47
2021/11/30 02:49:11;;;;;;;8.23;4.15;;;;;;;4.56;95.96;100744.97;4954156;28;20039;-49
2021/11/30 02:51:41;;;;;;;9.00;4.22;;;;;;;4.56;96.12;100739.59;4953842;28;20040;-47
2021/11/30 02:54:11;;;;;;;11.60;4.93;;;;;;;4.58;96.26;100732.09;4964888;28;20126;-48
2021/11/30 02:56:45;;;;;;;9.23;4.53;;;;;;;4.54;96.05;100720.09;4953975;28;20046;-49
2021/11/30 02:59:12;;;;;;;9.90;4.68;;;;;;;4.49;96.22;100722.66;4952669;29;20081;-49
2021/11/30 03:01:58;;;;;;;9.55;4.45;;;;;;;4.46;96.69;100717.75;4953766;29;20039;-52
2021/11/30 03:04:26;;;;;;;9.45;4.13;;;;;;;4.49;96.74;100711.88;4954012;28;20497;-50
2021/11/30 03:06:56;;;;;;;8.98;3.90;;;;;;;4.53;97.49;100707.69;4953620;28;20410;-51
2021/11/30 03:09:24;;;;;;;9.85;4.43;;;;;;;4.49;97.18;100711.88;4953533;28;20094;-47
2021/11/30 03:11:52;;;;;;;8.10;4.50;;;;;;;4.55;99.09;100700.19;4953469;28;20045;-49
2021/11/30 03:14:20;;;;;;;10.20;4.35;;;;;;;4.52;97.50;100694.41;4954706;28;20042;-49
2021/11/30 03:16:49;;;;;;;6.72;3.72;;;;;;;4.49;98.53;100690.28;4953340;28;20043;-48
2021/11/30 03:19:17;;;;;;;6.50;3.92;;;;;;;4.54;98.71;100697.69;4953306;28;20046;-48
2021/11/30 03:21:47;;;;;;;7.68;4.30;;;;;;;4.60;98.80;100691.41;4952671;29;20514;-49
2021/11/30 03:24:15;;;;;;;9.70;4.28;;;;;;;4.62;98.71;100681.19;4955031;28;20483;-49
2021/11/30 03:26:43;;;;;;;7.90;4.60;;;;;;;4.56;98.93;100685.63;4953775;28;20044;-45
2021/11/30 03:29:11;;;;;;;7.90;4.38;;;;;;;4.56;99.03;100680.22;4953330;28;20039;-52
2021/11/30 03:34:15;;;;;;;8.90;4.20;;;;;;;4.49;99.57;100672.22;4954300;28;20063;-51
2021/11/30 03:36:46;;;;;;;8.10;4.15;;;;;;;4.55;99.99;100667.81;4952922;28;20054;-51
2021/11/30 03:39:17;;;;;;;7.50;4.07;;;;;;;4.53;100.00;100675.31;4952765;28;20490;-50
2021/11/30 03:41:45;;;;;;;7.82;3.90;;;;;;;4.57;100.00;100670.25;4953498;28;20039;-49
2021/11/30 03:44:13;;;;;;;6.90;3.78;;;;;;;4.62;100.00;100665.00;4953173;28;20059;-49
2021/11/30 03:46:43;;;;;;;7.38;4.15;;;;;;;4.66;100.00;100661.56;4953890;28;20443;-47
2021/11/30 03:49:12;;;;;;;7.22;4.07;;;;;;;4.64;100.00;100658.31;4951815;29;20056;-48
2021/11/30 03:51:41;;;;;;;7.35;3.45;;;;;;;4.64;100.00;100655.63;4952918;28;20039;-49
2021/11/30 03:54:09;;;;;;;5.72;3.60;;;;;;;4.64;100.00;100652.06;4953955;28;20043;-49
2021/11/30 03:56:38;;;;;;;7.47;4.05;;;;;;;4.66;100.00;100640.00;4958113;28;20043;-49
2021/11/30 03:59:07;;;;;;;6.93;3.55;;;;;;;4.63;100.00;100643.16;4956844;29;20039;-44
2021/11/30 04:01:35;;;;;;;6.30;3.63;;;;;;;4.65;100.00;100646.47;4956919;28;20047;-46
2021/11/30 04:04:08;;;;;;;4.90;3.30;;;;;;;4.67;100.00;100632.75;4957116;29;20063;-45
2021/11/30 04:06:36;;;;;;;6.85;3.92;;;;;;;4.73;100.00;100649.88;4957330;28;20047;-47
2021/11/30 04:09:04;;;;;;;6.85;3.90;;;;;;;4.70;100.00;100638.47;4956679;28;20526;-50
2021/11/30 04:11:33;;;;;;;7.28;4.10;;;;;;;4.68;100.00;100631.66;4956694;28;20055;-48
2021/11/30 04:14:00;;;;;;;7.65;4.00;;;;;;;4.70;100.00;100630.38;4957239;28;20529;-52
2021/11/30 04:16:28;;;;;;;7.53;4.38;;;;;;;4.75;100.00;100621.59;4956736;28;20062;-46
2021/11/30 04:18:56;;;;;;;6.25;3.50;;;;;;;4.75;100.00;100618.06;4956329;29;20454;-49
2021/11/30 04:21:23;;;;;;;8.70;4.80;;;;;;;4.74;100.00;100611.84;4956613;29;20059;-48
2021/11/30 04:23:53;;;;;;;7.38;3.70;;;;;;;4.75;100.00;100615.38;4956478;28;20070;-48
2021/11/30 04:26:21;;;;;;;8.27;4.40;;;;;;;4.84;100.00;100609.38;4957799;28;20080;-49
2021/11/30 04:28:49;;;;;;;7.10;3.90;;;;;;;4.86;100.00;100603.75;4955990;28;20054;-48
2021/11/30 04:31:16;;;;;;;7.18;3.97;;;;;;;4.85;100.00;100596.69;4956607;28;20042;-49
2021/11/30 04:33:44;;;;;;;7.13;3.95;;;;;;;4.83;100.00;100593.41;4956096;28;20165;-50
2021/11/30 04:36:12;;;;;;;7.88;3.80;;;;;;;4.84;100.00;100600.47;4957264;28;20419;-52
2021/11/30 04:38:40;;;;;;;5.97;3.65;;;;;;;4.85;100.00;100596.69;4955780;28;20057;-49
2021/11/30 04:41:08;;;;;;;6.65;3.40;;;;;;;4.86;100.00;100595.66;4956037;28;20138;-51
2021/11/30 04:43:35;;;;;;;5.65;3.70;;;;;;;4.82;100.00;100589.91;4956056;28;20074;-49
2021/11/30 04:46:12;;;;;;;5.40;3.05;;;;;;;4.86;100.00;100585.69;4956774;28;20053;-49
2021/11/30 04:48:43;;;;;;;7.05;3.40;;;;;;;4.89;100.00;100576.28;4965631;28;20051;-51
2021/11/30 04:51:12;;;;;;;6.13;3.58;;;;;;;4.87;100.00;100573.81;4955818;28;20046;-51
2021/11/30 04:53:43;;;;;;;6.53;3.50;;;;;;;4.89;100.00;100574.41;4955860;28;20431;-46
2021/11/30 04:56:13;;;;;;;6.63;3.40;;;;;;;4.89;100.00;100565.50;4955877;28;20083;-51
2021/11/30 04:58:42;;;;;;;5.45;3.20;;;;;;;4.89;100.00;100570.88;4956533;28;20482;-48
2021/11/30 05:01:10;;;;;;;4.32;2.90;;;;;;;4.92;100.00;100556.91;4954454;29;20170;-50
2021/11/30 05:03:43;;;;;;;5.82;3.15;;;;;;;4.93;100.00;100563.97;4955592;28;20848;-48
2021/11/30 05:06:12;;;;;;;8.00;3.25;;;;;;;4.96;100.00;100560.78;4954566;28;20207;-52
2021/11/30 05:08:40;;;;;;;6.05;3.35;;;;;;;4.97;100.00;100559.72;4940956;29;20047;-49
2021/11/30 05:11:08;;;;;;;5.20;3.20;;;;;;;5.02;100.00;100549.03;4955867;28;20409;-49
2021/11/30 05:13:36;;;;;;;5.43;2.90;;;;;;;5.03;100.00;100549.88;4955607;28;20501;-48
2021/11/30 05:16:04;;;;;;;3.85;2.90;;;;;;;5.05;100.00;100543.16;4954359;29;20520;-52
2021/11/30 05:18:31;;;;;;;5.90;3.10;;;;;;;5.05;100.00;100537.75;4968753;28;20039;-46
2021/11/30 05:20:59;;;;;;;4.72;3.22;;;;;;;5.08;100.00;100542.69;4955563;28;20047;-52
2021/11/30 05:23:28;;;;;;;4.28;2.85;;;;;;;5.10;100.00;100547.84;4955552;28;20055;-48
2021/11/30 05:26:02;;;;;;;6.20;2.75;;;;;;;5.15;100.00;100542.56;4956444;28;20085;-50
2021/11/30 05:28:30;;;;;;;4.70;2.95;;;;;;;5.24;100.00;100540.28;4954981;28;20047;-51
2021/11/30 05:30:59;;;;;;;4.72;2.90;;;;;;;5.29;100.00;100537.69;4955354;28;20047;-48
2021/11/30 05:33:27;;;;;;;3.65;2.70;;;;;;;5.25;100.00;100541.94;4954965;28;20055;-49
2021/11/30 05:35:55;;;;;;;3.38;2.50;;;;;;;5.23;100.00;100538.66;4954666;29;20420;-49
2021/11/30 05:38:23;;;;;;;5.22;3.00;;;;;;;5.26;100.00;100544.38;4955952;28;20093;-47
2021/11/30 05:40:51;;;;;;;3.13;2.45;;;;;;;5.30;100.00;100544.75;4955383;29;20057;-53
2021/11/30 05:43:18;;;;;;;3.90;2.47;;;;;;;5.31;100.00;100549.06;4955535;28;20066;-49
2021/11/30 05:45:46;;;;;;;3.28;2.55;;;;;;;5.32;100.00;100551.53;4956345;28;20040;-49
2021/11/30 05:48:14;;;;;;;3.38;2.70;;;;;;;5.34;100.00;100535.09;4954421;28;20044;-49
2021/11/30 05:50:43;;;;;;;3.28;2.17;;;;;;;5.41;100.00;100534.94;4955085;28;20039;-50
2021/11/30 05:53:10;;;;;;;3.50;2.22;;;;;;;5.39;100.00;100535.19;4954885;28;20043;-48
2021/11/30 05:55:44;;;;;;;3.33;2.35;;;;;;;5.44;100.00;100537.19;4954960;28;20047;-50
2021/11/30 05:58:15;;;;;;;2.05;1.83;;;;;;;5.53;100.00;100536.56;4954755;28;20046;-51
2021/11/30 06:00:43;;;;;;;2.70;1.92;;;;;;;5.58;100.00;100537.69;4953038;28;20409;-50
2021/11/30 06:05:47;;;;;;;2.13;1.63;;;;;;;5.62;100.00;100536.97;4955741;28;20047;-48
2021/11/30 06:08:15;;;;;;;1.70;1.60;;;;;;;5.64;100.00;100539.44;4954082;28;20064;-49
2021/11/30 06:10:42;;;;;;;2.20;1.63;;;;;;;5.62;100.00;100541.56;4954705;28;20047;-49
2021/11/30 06:13:10;;;;;;;1.58;1.48;;;;;;;5.71;100.00;100540.91;4954410;28;20468;-48
2021/11/30 06:15:38;;;;;;;1.40;1.30;;;;;;;5.76;100.00;100541.00;4953743;28;20063;-49
2021/11/30 06:18:05;;;;;;;1.48;1.25;;;;;;;5.76;100.00;100551.00;4957409;28;20051;-51
2021/11/30 06:20:34;;;;;;;1.23;1.23;;;;;;;5.74;100.00;100551.25;4950690;29;20062;-49
2021/11/30 06:23:02;;;;;;;1.60;1.50;;;;;;;5.74;100.00;100545.03;4954058;28;20059;-49
2021/11/30 06:25:34;;;;;;;1.58;1.33;;;;;;;5.71;100.00;100559.03;4954089;28;20534;-49
2021/11/30 06:28:01;;;;;;;1.87;1.30;;;;;;;5.73;100.00;100551.50;4270141;28;10022350;-50
2021/11/30 06:30:29;;;;;;;1.48;1.40;;;;;;;5.81;100.00;100543.00;4951428;28;20489;-49
2021/11/30 06:32:57;;;;;;;1.30;1.30;;;;;;;5.80;100.00;100541.34;4951769;28;20039;-48
2021/11/30 06:35:24;;;;;;;1.60;1.50;;;;;;;5.79;100.00;100536.19;4951811;29;20070;-46
2021/11/30 06:37:52;;;;;;;1.77;1.63;;;;;;;5.79;100.00;100541.59;4952577;28;20485;-45
2021/11/30 06:40:20;;;;;;;1.10;1.10;;;;;;;5.79;100.00;100544.28;4951487;28;20058;-46
2021/11/30 06:42:48;;;;;;;1.15;1.15;;;;;;;5.81;100.00;100540.28;4951982;29;20153;-45
2021/11/30 06:45:15;;;;;;;1.33;1.20;;;;;;;5.84;100.00;100545.19;4951427;29;20501;-47
2021/11/30 06:47:43;;;;;;;2.17;1.45;;;;;;;5.90;100.00;100546.13;4952564;28;20059;-49
2021/11/30 06:50:11;;;;;;;1.55;1.20;;;;;;;5.90;100.00;100544.22;4940686;29;20082;-47
2021/11/30 06:52:39;;;;;;;2.25;1.48;;;;;;;5.87;100.00;100544.72;4952761;29;20062;-45
2021/11/30 06:55:09;;;;;;;1.48;1.38;;;;;;;5.86;100.00;100543.06;4952732;29;20379;-50
2021/11/30 06:57:37;;;;;;;1.65;1.40;;;;;;;5.86;100.00;100548.47;4951811;28;20452;-46
2021/11/30 07:00:06;;;;;;;2.30;1.45;;;;;;;5.88;100.00;100537.44;4952215;28;20509;-51
2021/11/30 07:02:35;;;;;;;1.40;1.27;;;;;;;5.84;100.00;100528.97;4951543;28;20441;-54
2021/11/30 07:05:24;;;;;;;1.98;1.52;;;;;;;5.83;100.00;100527.34;4951509;28;20052;-53
2021/11/30 07:08:11;;;;;;;2.28;1.55;;;;;;;5.83;100.00;100521.94;4951653;28;20047;-52
2021/11/30 07:10:48;;;;;;;1.95;1.60;;;;;;;5.84;100.00;100522.75;4952614;28;20075;-56
2021/11/30 07:13:33;;;;;;;1.48;1.38;;;;;;;5.85;100.00;100519.81;4948947;28;20047;-54
2021/11/30 07:16:03;;;;;;;1.30;1.20;;;;;;;5.87;100.00;100516.84;4954723;28;20079;-52
2021/11/30 07:18:32;;;;;;;1.98;1.60;;;;;;;5.89;100.00;100536.34;4950847;28;20047;-50
2021/11/30 07:21:01;;;;;;;1.58;1.38;;;;;;;5.89;100.00;100537.19;4951316;28;20043;-49
2021/11/30 07:23:30;;;;;;;2.50;1.60;;;;;;;5.95;100.00;100528.13;4948118;28;20047;-52
2021/11/30 07:25:58;;;;;;;1.88;1.63;;;;;;;5.96;100.00;100534.34;4950454;28;20126;-47
2021/11/30 07:28:29;;;;;;;1.58;1.38;;;;;;;5.98;100.00;100540.34;4946775;28;20058;-51
2021/11/30 07:31:04;;;;;;;2.05;1.65;;;;;;;5.99;100.00;100547.41;4951556;28;20055;-50
2021/11/30 07:33:33;;;;;;;2.03;1.67;;;;;;;6.01;100.00;100539.03;4953048;28;20048;-47
2021/11/30 07:36:02;;;;;;;2.00;1.80;;;;;;;6.03;100.00;100540.41;4952843;28;20095;-48
2021/11/30 07:38:29;;;;;;;2.17;1.90;;;;;;;6.04;100.00;100546.63;4952841;28;20047;-48
2021/11/30 07:40:57;;;;;;;1.83;1.73;;;;;;;6.07;100.00;100548.88;4952825;29;20047;-46
2021/11/30 07:43:25;;;;;;;1.90;1.80;;;;;;;6.11;100.00;100550.00;4953367;28;20407;-49
2021/11/30 07:45:53;;;;;;;2.20;1.88;;;;;;;6.11;100.00;100550.00;4951837;29;20070;-47
2021/11/30 07:48:21;;;;;;;1.70;1.60;;;;;;;6.11;100.00;100550.00;4953217;29;20047;-50
2021/11/30 07:50:51;;;;;;;3.00;1.92;;;;;;;6.11;100.00;100567.09;4953413;28;20051;-49
2021/11/30 07:53:19;;;;;;;1.95;1.80;;;;;;;6.14;100.00;100563.06;4954017;28;20042;-46
2021/11/30 07:55:47;;;;;;;2.95;2.00;;;;;;;6.15;100.00;100565.50;4953467;28;20055;-45
2021/11/30 07:58:15;;;;;;;2.13;1.70;;;;;;;6.16;100.00;100571.75;4952256;28;20466;-47
2021/11/30 08:00:42;;;;;;;2.30;2.10;;;;;;;6.18;100.00;100566.91;4953062;28;20132;-45
2021/11/30 08:03:10;;;;;;;3.08;2.10;;;;;;;6.20;100.00;100575.59;4953771;28;20095;-45
2021/11/30 08:05:38;;;;;;;2.65;1.98;;;;;;;6.20;100.00;100570.19;4951840;29;20055;-49
2021/11/30 08:08:06;;;;;;;5.13;1.85;;;;;;;6.24;100.00;100579.47;4952892;28;20065;-49
2021/11/30 08:10:33;;;;;;;3.08;2.40;;;;;;;6.23;100.00;100569.72;4940333;29;20395;-51
2021/11/30 08:13:01;;;;;;;3.05;2.40;;;;;;;6.26;100.00;100574.63;4952353;28;20106;-47
2021/11/30 08:15:28;;;;;;;3.45;2.17;;;;;;;6.26;100.00;100574.63;4951539;29;20519;-48
2021/11/30 08:18:01;;;;;;;2.50;2.10;;;;;;;6.30;100.00;100575.78;4952998;28;20070;-46
2021/11/30 08:20:29;;;;;;;2.38;2.13;;;;;;;6.39;100.00;100570.75;4952841;28;20047;-46
2021/11/30 08:22:57;;;;;;;3.30;2.50;;;;;;;6.40;100.00;100580.53;4952477;28;20138;-47
2021/11/30 08:25:25;;;;;;;3.25;2.33;;;;;;;6.41;100.00;100571.34;4952626;28;20044;-45
2021/11/30 08:27:53;;;;;;;5.28;2.65;;;;;;;6.50;100.00;100571.75;4952511;28;20043;-47
2021/11/30 08:30:41;;;;;;;5.32;2.83;;;;;;;6.57;100.00;100569.69;4951769;29;20047;-46
2021/11/30 08:33:09;;;;;;;4.10;2.50;;;;;;;6.62;100.00;100567.06;4954052;28;20058;-46
2021/11/30 08:35:37;;;;;;;5.47;2.80;;;;;;;6.70;100.00;100563.13;4953122;28;20063;-45
2021/11/30 08:38:05;;;;;;;4.05;2.50;;;;;;;6.70;100.00;100563.94;4952674;28;20044;-48
2021/11/30 08:40:33;;;;;;;5.63;2.92;;;;;;;6.73;100.00;100568.84;4953880;28;20406;-48
2021/11/30 08:43:01;;;;;;;5.13;2.70;;;;;;;6.77;100.00;100561.88;4956328;28;20070;-51
2021/11/30 08:45:29;;;;;;;5.22;2.97;;;;;;;6.81;100.00;100565.72;4957242;28;20047;-50
2021/11/30 08:47:57;;;;;;;6.03;2.72;;;;;;;6.83;100.00;100562.75;4956160;28;20557;-51
2021/11/30 08:50:25;;;;;;;6.43;3.03;;;;;;;6.91;100.00;100565.03;4956460;28;20040;-50
2021/11/30 08:52:53;;;;;;;3.72;2.38;;;;;;;6.91;100.00;100562.34;4957195;28;20050;-49
2021/11/30 08:55:53;;;;;;;5.65;2.88;;;;;;;6.94;100.00;100563.72;4877671;29;20092;-51
2021/11/30 08:58:22;;;;;;;4.80;2.58;;;;;;;6.95;100.00;100570.75;4877526;29;20075;-50
2021/11/30 09:00:50;;;;;;;4.22;2.60;;;;;;;6.96;100.00;100565.13;4878136;29;20053;-51
2021/11/30 09:03:18;;;;;;;6.05;2.78;;;;;;;6.99;100.00;100556.47;4877434;29;20065;-52
2021/11/30 09:05:46;;;;;;;4.93;2.50;;;;;;;7.01;100.00;100548.91;4885225;29;20132;-51
2021/11/30 09:08:13;;;;;;;6.53;2.90;;;;;;;7.05;100.00;100549.25;4877271;29;20429;-50
2021/11/30 09:10:41;;;;;;;4.50;2.80;;;;;;;7.11;100.00;100558.25;4877113;29;20048;-46
2021/11/30 09:13:09;;;;;;;4.70;2.63;;;;;;;7.13;100.00;100548.00;4894061;28;20417;-51
2021/11/30 09:15:38;;;;;;;4.88;3.00;;;;;;;7.12;100.00;100549.88;4957963;28;20059;-49
2021/11/30 09:18:08;;;;;;;4.00;2.35;;;;;;;7.15;100.00;100554.78;4955200;28;20050;-48
2021/11/30 09:20:36;;;;;;;4.60;2.58;;;;;;;7.14;100.00;100555.03;4947169;28;20049;-58
2021/11/30 09:23:04;;;;;;;5.57;2.88;;;;;;;7.16;100.00;100556.41;4950619;28;20090;-49
2021/11/30 09:26:04;;;;;;;6.32;2.80;;;;;;;7.20;100.00;100559.47;4876171;29;20051;-48
2021/11/30 09:28:32;;;;;;;3.90;2.70;;;;;;;7.23;100.00;100562.47;4889749;29;20055;-49
2021/11/30 09:31:00;;;;;;;5.22;2.90;;;;;;;7.25;100.00;100554.91;4886150;29;20058;-49
2021/11/30 09:33:40;;;;;;;5.35;2.97;;;;;;;7.29;100.00;100567.94;4894677;29;20138;-51
2021/11/30 09:36:09;;;;;;;6.35;3.00;;;;;;;7.32;100.00;100572.88;4887939;29;20056;-51
2021/11/30 09:38:37;;;;;;;4.90;2.90;;;;;;;7.33;100.00;100571.81;4884158;29;20051;-51
2021/11/30 09:41:05;;;;;;;5.85;3.15;;;;;;;7.36;100.00;100572.13;4885843;29;20160;-55
2021/11/30 09:43:49;;;;;;;6.35;3.38;;;;;;;7.39;100.00;100585.16;4921054;29;20043;-49
2021/11/30 09:46:17;;;;;;;7.60;3.30;;;;;;;7.44;100.00;100584.41;4956013;28;20110;-50
2021/11/30 09:48:45;;;;;;;10.30;3.45;;;;;;;7.44;100.00;100576.28;4954624;29;20043;-52
2021/11/30 09:51:13;;;;;;;6.85;3.20;;;;;;;7.42;100.00;100581.94;4954376;28;20047;-49
2021/11/30 09:53:41;;;;;;;6.18;3.00;;;;;;;7.51;100.00;100590.47;4954344;28;20058;-53
2021/11/30 09:56:09;;;;;;;5.70;3.20;;;;;;;7.54;100.00;100584.53;4954933;28;20605;-50
2021/11/30 09:58:37;;;;;;;5.00;2.88;;;;;;;7.55;100.00;100583.47;4954026;29;20039;-54
2021/11/30 10:01:09;;;;;;;4.68;2.63;;;;;;;7.59;100.00;100589.19;4954590;28;20127;-50
2021/11/30 10:03:38;;;;;;;5.40;2.67;;;;;;;7.58;100.00;100595.69;4948932;29;20090;-51
2021/11/30 10:06:06;;;;;;;6.60;2.85;;;;;;;7.61;100.00;100585.16;4955665;28;20066;-51
2021/11/30 10:08:35;;;;;;;4.65;2.67;;;;;;;7.65;100.00;100582.75;4953498;28;20058;-50
2021/11/30 10:11:27;;;;;;;5.97;2.63;;;;;;;7.64;100.00;100592.78;4954226;28;20059;-50
2021/11/30 10:14:16;;;;;;;7.65;2.70;;;;;;;7.66;100.00;100587.91;4950190;28;20043;-53
2021/11/30 10:17:08;;;;;;;7.43;2.97;;;;;;;7.68;100.00;100587.66;4954164;28;20113;-53
2021/11/30 10:19:36;;;;;;;7.43;2.60;;;;;;;7.67;100.00;100597.72;4953585;29;20050;-52
2021/11/30 10:22:04;;;;;;;5.43;2.42;;;;;;;7.71;100.00;100594.47;4940164;28;20048;-49
2021/11/30 10:24:32;;;;;;;5.18;2.42;;;;;;;7.73;100.00;100586.91;4957776;28;20053;-50
2021/11/30 10:26:59;;;;;;;6.07;2.55;;;;;;;7.75;100.00;100579.34;4959462;28;20362;-50
2021/11/30 10:29:29;;;;;;;3.95;2.20;;;;;;;7.76;100.00;100598.06;4953979;28;20102;-51
2021/11/30 10:31:58;;;;;;;3.13;2.17;;;;;;;7.78;100.00;100579.63;4954222;28;20094;-50
2021/11/30 10:34:29;;;;;;;3.67;2.28;;;;;;;7.78;100.00;100567.97;4953612;28;20095;-48
2021/11/30 10:37:08;;;;;;;10.00;2.95;;;;;;;7.80;100.00;100568.53;4954005;28;20465;-51
2021/11/30 10:39:39;;;;;;;5.45;2.58;;;;;;;7.83;100.00;100570.75;4953314;28;20039;-53
2021/11/30 10:42:20;;;;;;;5.78;2.60;;;;;;;7.89;100.00;100569.72;4953639;28;20062;-51
2021/11/30 10:44:53;;;;;;;10.20;3.05;;;;;;;7.91;100.00;100570.25;4953292;28;20039;-50
2021/11/30 10:47:22;;;;;;;10.45;3.50;;;;;;;7.95;100.00;100568.69;4955069;28;20047;-53
2021/11/30 10:49:54;;;;;;;11.57;3.53;;;;;;;7.99;100.00;100569.81;4953854;28;20185;-54
2021/11/30 10:52:24;;;;;;;7.53;3.25;;;;;;;8.01;100.00;100573.09;4952772;28;20074;-51
2021/11/30 10:55:08;;;;;;;9.13;3.65;;;;;;;8.03;100.00;100565.53;4953604;28;20043;-51
2021/11/30 10:57:37;;;;;;;7.97;3.33;;;;;;;8.04;100.00;100575.28;4954417;28;20142;-53
2021/11/30 11:00:15;;;;;;;12.32;3.67;;;;;;;8.05;100.00;100589.66;4953525;28;20043;-48
2021/11/30 11:02:52;;;;;;;12.60;4.22;;;;;;;8.07;100.00;100582.91;4953293;28;20126;-54
2021/11/30 11:05:26;;;;;;;10.07;3.78;;;;;;;8.06;100.00;100586.72;4979768;28;20055;-48
2021/11/30 11:08:07;;;;;;;14.48;3.80;;;;;;;8.05;100.00;100595.91;4954161;28;20043;-50
2021/11/30 11:10:37;;;;;;;11.85;3.88;;;;;;;8.06;100.00;100586.72;4949591;29;20102;-47
2021/11/30 11:13:22;;;;;;;11.73;3.42;;;;;;;8.05;100.00;100590.47;4952819;28;20057;-54
2021/11/30 11:16:03;;;;;;;11.52;3.67;;;;;;;8.06;100.00;100584.00;4953693;29;20094;-54
2021/11/30 11:18:41;;;;;;;14.45;3.88;;;;;;;8.08;100.00;100578.28;4953907;28;20138;-50
2021/11/30 11:21:19;;;;;;;13.30;3.50;;;;;;;8.08;100.00;100581.84;4952718;28;20079;-47
2021/11/30 11:24:12;;;;;;;9.65;3.40;;;;;;;8.08;100.00;100581.84;4267736;28;10000645;-49
2021/11/30 11:26:43;;;;;;;11.52;3.38;;;;;;;8.11;100.00;100586.75;4951261;28;20133;-56
2021/11/30 11:29:21;;;;;;;12.43;3.13;;;;;;;8.14;100.00;100579.97;4957998;28;20039;-53
2021/11/30 11:32:19;;;;;;;9.23;3.20;;;;;;;8.15;100.00;100580.81;4952012;28;20353;-46
2021/11/30 11:34:47;;;;;;;12.43;4.05;;;;;;;8.16;100.00;100582.44;4949246;29;20102;-53
2021/11/30 11:37:14;;;;;;;11.27;4.00;;;;;;;8.16;100.00;100582.44;4949271;28;20055;-47
2021/11/30 11:39:42;;;;;;;11.45;3.42;;;;;;;8.17;100.00;100593.03;4950272;28;20050;-47
2021/11/30 11:42:12;;;;;;;11.30;3.55;;;;;;;8.19;100.00;100580.03;4950937;28;20077;-48
2021/11/30 11:44:41;;;;;;;10.77;3.63;;;;;;;8.22;100.00;100578.69;4950905;28;20043;-51
2021/11/30 11:47:11;;;;;;;13.23;3.60;;;;;;;8.23;100.00;100583.06;4951297;28;20043;-49
2021/11/30 11:49:41;;;;;;;14.05;3.67;;;;;;;8.25;100.00;100587.16;4951651;28;20043;-51